Time;durP1;ratioP1;P1;durP2;ratioP2;P2;SDS_P1;SDS_P2;PMS_P1;PMS_P2;Temp;Humidity;BMP_temperature;BMP_pressure;BME280_temperature;BME280_humidity;BME280_pressure;Samples;Min_cycle;Max_cycle;Signal;HPM_P1;HPM_P2
2023/03/18 00:00:48;;;;;;;20.83;13.10;;;12.30;88.90;;;;;;4590038;19;20035;-30
2023/03/18 00:02:23;;;;;;;22.17;13.63;;;12.30;89.20;;;;;;4589573;19;20462;-27
2023/03/18 00:03:56;;;;;;;22.00;13.37;;;12.30;89.40;;;;;;4588990;19;21029;-29
2023/03/18 00:05:29;;;;;;;26.00;13.75;;;12.30;89.30;;;;;;4589691;19;20936;-30
2023/03/18 00:07:02;;;;;;;22.37;12.37;;;12.30;89.50;;;;;;4589633;19;20013;-29
2023/03/18 00:08:34;;;;;;;22.00;14.43;;;12.30;89.20;;;;;;4589496;19;20473;-32
2023/03/18 00:10:09;;;;;;;21.93;14.10;;;12.30;89.40;;;;;;4589371;19;20018;-31
2023/03/18 00:11:41;;;;;;;24.63;13.60;;;12.30;88.90;;;;;;4588119;19;20583;-31
2023/03/18 00:13:12;;;;;;;22.02;14.68;;;12.40;89.10;;;;;;4588713;19;20587;-32
2023/03/18 00:14:43;;;;;;;23.25;13.27;;;12.40;89.10;;;;;;4588409;19;20385;-33
2023/03/18 00:16:15;;;;;;;26.77;15.35;;;12.40;89.20;;;;;;4589218;19;20110;-30
2023/03/18 00:17:47;;;;;;;;;;;12.40;88.50;;;;;;4591305;19;20089;-30
2023/03/18 00:19:18;;;;;;;22.48;12.23;;;12.50;89.40;;;;;;4589348;19;19929;-29
2023/03/18 00:20:50;;;;;;;24.08;15.02;;;12.50;89.10;;;;;;4586828;19;20014;-30
2023/03/18 00:22:21;;;;;;;22.52;13.95;;;12.40;88.60;;;;;;4590026;19;20021;-31
2023/03/18 00:23:55;;;;;;;24.15;15.65;;;12.50;89.10;;;;;;4589177;19;20018;-30
2023/03/18 00:25:27;;;;;;;24.23;15.07;;;12.50;89.60;;;;;;4588125;19;20347;-34
2023/03/18 00:26:58;;;;;;;19.30;13.57;;;12.50;88.90;;;;;;4589315;19;20465;-30
2023/03/18 00:28:30;;;;;;;26.65;15.40;;;12.40;89.30;;;;;;4590231;19;20015;-30
2023/03/18 00:30:02;;;;;;;;;;;12.40;89.10;;;;;;4590260;19;20015;-29
2023/03/18 00:31:33;;;;;;;25.83;15.50;;;12.40;89.30;;;;;;4588332;19;19922;-32
2023/03/18 00:33:05;;;;;;;25.08;14.98;;;12.40;88.70;;;;;;4589232;19;20046;-29
2023/03/18 00:34:36;;;;;;;24.98;15.63;;;12.40;88.70;;;;;;4588964;19;20021;-40
2023/03/18 00:36:08;;;;;;;24.08;15.93;;;12.40;89.10;;;;;;4589619;19;20014;-30
2023/03/18 00:37:41;;;;;;;26.33;16.20;;;12.40;88.80;;;;;;4589374;19;20010;-30
2023/03/18 00:39:12;;;;;;;26.57;16.07;;;12.40;89.00;;;;;;4589948;19;20461;-29
2023/03/18 00:40:52;;;;;;;24.20;15.25;;;12.40;88.90;;;;;;4589762;19;20525;-30
2023/03/18 00:42:24;;;;;;;25.10;16.03;;;12.40;89.30;;;;;;4588946;19;20078;-33
2023/03/18 00:43:55;;;;;;;26.40;14.90;;;12.40;89.10;;;;;;4588528;19;20501;-31
2023/03/18 00:45:27;;;;;;;24.63;14.95;;;12.40;89.10;;;;;;4587688;19;20874;-29
2023/03/18 00:46:58;;;;;;;21.60;14.43;;;12.40;88.90;;;;;;4589442;19;20026;-30
2023/03/18 00:48:29;;;;;;;21.45;14.43;;;12.40;89.00;;;;;;4588530;19;20576;-31
2023/03/18 00:50:00;;;;;;;21.67;14.25;;;12.40;89.40;;;;;;4588150;19;20003;-31
2023/03/18 00:51:33;;;;;;;22.55;14.02;;;12.40;88.80;;;;;;4587448;19;20015;-31
2023/03/18 00:53:04;;;;;;;22.83;14.50;;;12.40;88.80;;;;;;4587407;19;20014;-32
2023/03/18 00:54:36;;;;;;;21.80;14.32;;;12.30;89.10;;;;;;4589953;19;21060;-31
2023/03/18 00:56:07;;;;;;;25.52;14.68;;;12.40;89.00;;;;;;4589045;19;20022;-29
2023/03/18 00:57:38;;;;;;;23.13;14.30;;;12.30;89.20;;;;;;4589539;19;20014;-30
2023/03/18 00:59:10;;;;;;;21.23;12.82;;;12.30;89.30;;;;;;4588799;19;20082;-29
2023/03/18 01:00:42;;;;;;;22.08;14.98;;;12.30;88.80;;;;;;4588502;19;20007;-30
2023/03/18 01:02:13;;;;;;;20.15;13.55;;;12.30;89.00;;;;;;4589700;19;20015;-30
2023/03/18 01:03:45;;;;;;;;;;;12.30;88.80;;;;;;4587997;19;20036;-30
2023/03/18 01:05:16;;;;;;;19.63;12.63;;;12.30;89.40;;;;;;4589384;19;19925;-29
2023/03/18 01:06:47;;;;;;;21.30;13.30;;;12.30;89.00;;;;;;4588598;19;20469;-28
2023/03/18 01:08:20;;;;;;;19.30;11.13;;;12.30;89.40;;;;;;4589511;19;20094;-32
2023/03/18 01:09:51;;;;;;;17.17;12.20;;;12.30;88.80;;;;;;4588896;19;20019;-31
2023/03/18 01:11:23;;;;;;;18.02;12.45;;;12.30;89.20;;;;;;4591204;19;21053;-29
2023/03/18 01:12:55;;;;;;;20.73;13.30;;;12.30;89.00;;;;;;4593286;19;20014;-33
2023/03/18 01:14:26;;;;;;;18.02;11.20;;;12.30;88.90;;;;;;4592401;19;20818;-31
2023/03/18 01:15:58;;;;;;;18.92;11.88;;;12.20;88.90;;;;;;4593587;19;20038;-31
2023/03/18 01:17:30;;;;;;;15.60;11.23;;;12.20;89.20;;;;;;4593251;19;20018;-31
2023/03/18 01:19:01;;;;;;;18.20;11.77;;;12.20;89.10;;;;;;4593691;19;20073;-28
2023/03/18 01:20:32;;;;;;;18.58;11.75;;;12.20;88.90;;;;;;4592622;19;20804;-31
2023/03/18 01:22:04;;;;;;;19.13;11.88;;;12.20;89.20;;;;;;4590837;19;20007;-30
2023/03/18 01:23:35;;;;;;;23.20;12.60;;;12.20;89.60;;;;;;4593727;19;20011;-30
2023/03/18 01:25:08;;;;;;;19.30;11.90;;;12.20;89.40;;;;;;4592887;19;20022;-30
2023/03/18 01:26:40;;;;;;;18.77;12.00;;;12.20;89.30;;;;;;4594041;19;20010;-29
2023/03/18 01:28:12;;;;;;;18.45;11.38;;;12.10;89.30;;;;;;4593051;19;20511;-33
2023/03/18 01:29:45;;;;;;;18.00;11.53;;;12.10;89.30;;;;;;4593325;19;20043;-31
2023/03/18 01:31:16;;;;;;;17.53;11.40;;;12.10;89.50;;;;;;4592429;19;20453;-36
2023/03/18 01:32:48;;;;;;;16.15;10.95;;;12.10;89.50;;;;;;4591328;19;20449;-33
2023/03/18 01:34:20;;;;;;;19.38;11.82;;;12.10;89.40;;;;;;4593512;19;20006;-29
2023/03/18 01:35:55;;;;;;;20.17;11.63;;;12.10;89.40;;;;;;4591002;19;20022;-29
2023/03/18 01:37:27;;;;;;;18.63;12.67;;;12.10;89.50;;;;;;4591547;19;21199;-29
2023/03/18 01:38:58;;;;;;;;;;;12.10;89.80;;;;;;4593235;19;20444;-30
2023/03/18 01:40:34;;;;;;;19.58;11.88;;;12.10;90.00;;;;;;4591834;19;19914;-29
2023/03/18 01:42:06;;;;;;;18.07;11.30;;;12.10;90.00;;;;;;4592623;19;20013;-30
2023/03/18 01:43:39;;;;;;;18.00;11.52;;;12.10;89.30;;;;;;4591749;19;20765;-29
2023/03/18 01:45:23;;;;;;;17.90;11.30;;;12.00;89.40;;;;;;4592772;19;20010;-29
2023/03/18 01:46:55;;;;;;;17.37;11.70;;;12.00;89.90;;;;;;4591365;19;20420;-30
2023/03/18 01:48:34;;;;;;;17.37;10.63;;;12.00;89.80;;;;;;4592233;19;20428;-31
2023/03/18 01:50:06;;;;;;;20.53;11.50;;;12.10;89.70;;;;;;4591301;19;20938;-29
2023/03/18 01:51:41;;;;;;;16.17;9.87;;;12.00;89.80;;;;;;4591852;19;20463;-29
2023/03/18 01:53:15;;;;;;;18.07;11.50;;;12.00;89.70;;;;;;4590096;19;20478;-29
2023/03/18 01:54:53;;;;;;;19.37;11.00;;;12.00;89.90;;;;;;4591965;19;21056;-29
2023/03/18 01:56:25;;;;;;;17.37;10.60;;;12.00;89.50;;;;;;4591273;19;20435;-31
2023/03/18 01:57:56;;;;;;;;;;;12.00;89.60;;;;;;4591927;19;20548;-29
2023/03/18 01:59:28;;;;;;;18.10;10.70;;;12.00;89.50;;;;;;4592127;19;19933;-30
2023/03/18 02:01:32;;;;;;;19.47;11.67;;;12.00;89.30;;;;;;4590874;19;20078;-34
2023/03/18 02:03:05;;;;;;;18.50;10.90;;;12.00;89.40;;;;;;4589691;19;20432;-33
2023/03/18 02:04:57;;;;;;;16.90;9.80;;;12.00;89.50;;;;;;4588495;19;20460;-32
2023/03/18 02:06:30;;;;;;;17.13;10.20;;;12.00;89.60;;;;;;4589536;19;20433;-29
2023/03/18 02:08:02;;;;;;;16.45;9.73;;;12.00;89.20;;;;;;4590035;19;20421;-31
2023/03/18 02:09:33;;;;;;;;;;;12.00;89.40;;;;;;4590704;19;20081;-33
2023/03/18 02:11:05;;;;;;;17.97;10.10;;;12.00;89.80;;;;;;4588725;19;19926;-30
2023/03/18 02:12:38;;;;;;;19.53;11.00;;;11.90;89.40;;;;;;4589131;19;20022;-30
2023/03/18 02:14:12;;;;;;;17.87;11.50;;;12.00;89.50;;;;;;4589877;19;20437;-30
2023/03/18 02:15:53;;;;;;;16.70;10.80;;;11.90;89.40;;;;;;4589503;19;21041;-30
2023/03/18 02:17:28;;;;;;;18.25;10.48;;;11.90;90.20;;;;;;4589763;19;20488;-31
2023/03/18 02:19:04;;;;;;;16.40;10.63;;;11.90;89.60;;;;;;4589462;19;20493;-29
2023/03/18 02:20:41;;;;;;;16.70;10.57;;;11.90;89.30;;;;;;4589608;19;20581;-29
2023/03/18 02:22:30;;;;;;;18.00;10.33;;;11.90;89.60;;;;;;4588622;19;20474;-31
2023/03/18 02:24:20;;;;;;;17.50;10.70;;;11.90;90.10;;;;;;4588828;19;20437;-29
2023/03/18 02:25:58;;;;;;;17.00;10.33;;;11.90;89.60;;;;;;4589261;19;21144;-31
2023/03/18 02:27:33;;;;;;;17.27;10.40;;;11.90;89.40;;;;;;4589183;19;20437;-33
2023/03/18 02:29:05;;;;;;;18.53;11.17;;;11.90;89.90;;;;;;4589696;19;21036;-30
2023/03/18 02:30:40;;;;;;;18.50;10.83;;;11.90;89.70;;;;;;4589308;19;20453;-29
2023/03/18 02:32:12;;;;;;;16.50;10.77;;;11.90;89.30;;;;;;4589133;19;20587;-32
2023/03/18 02:33:44;;;;;;;16.40;10.40;;;12.00;89.50;;;;;;4587927;19;20609;-31
2023/03/18 02:35:17;;;;;;;17.53;10.73;;;12.00;89.50;;;;;;4589120;19;20045;-32
2023/03/18 02:36:48;;;;;;;17.35;10.68;;;12.00;89.00;;;;;;4589267;19;21009;-30
2023/03/18 02:38:21;;;;;;;16.90;10.43;;;12.00;89.40;;;;;;4589233;19;20018;-30
2023/03/18 02:39:53;;;;;;;17.40;10.83;;;11.90;89.20;;;;;;4589433;19;20457;-32
2023/03/18 02:41:31;;;;;;;16.30;10.30;;;11.90;89.30;;;;;;4590128;19;21223;-31
2023/03/18 02:43:22;;;;;;;19.73;11.40;;;11.90;89.40;;;;;;4590943;19;20452;-29
2023/03/18 02:44:53;;;;;;;15.50;10.40;;;12.00;89.40;;;;;;4590075;19;20455;-29
2023/03/18 02:46:48;;;;;;;20.50;10.37;;;11.90;89.20;;;;;;4590864;19;20527;-29
2023/03/18 02:48:20;;;;;;;16.50;9.73;;;11.90;89.20;;;;;;4590253;19;20440;-29
2023/03/18 02:49:51;;;;;;;15.13;10.68;;;11.90;89.30;;;;;;4590087;19;20469;-29
2023/03/18 02:51:25;;;;;;;17.33;11.13;;;11.90;89.10;;;;;;4589675;19;20010;-30
2023/03/18 02:52:56;;;;;;;19.03;10.27;;;11.90;89.00;;;;;;4590090;19;21075;-29
2023/03/18 02:54:28;;;;;;;;;;;11.90;89.20;;;;;;4590996;19;20429;-29
2023/03/18 02:56:00;;;;;;;15.80;10.20;;;11.90;89.70;;;;;;4589849;19;19936;-29
2023/03/18 02:57:33;;;;;;;18.60;10.10;;;12.00;89.20;;;;;;4590521;19;20467;-30
2023/03/18 02:59:04;;;;;;;14.93;10.50;;;12.00;89.40;;;;;;4590892;19;20441;-30
2023/03/18 03:00:37;;;;;;;21.70;11.33;;;12.00;89.50;;;;;;4589993;19;20016;-29
2023/03/18 03:02:09;;;;;;;17.08;10.23;;;12.00;89.10;;;;;;4590456;19;20417;-31
2023/03/18 03:03:40;;;;;;;20.75;11.23;;;12.00;89.20;;;;;;4590523;19;20011;-30
2023/03/18 03:05:13;;;;;;;17.40;10.80;;;12.00;89.10;;;;;;4590955;19;20468;-29
2023/03/18 03:06:44;;;;;;;17.23;10.85;;;12.00;89.40;;;;;;4589867;19;20476;-29
2023/03/18 03:08:16;;;;;;;17.77;10.73;;;12.00;89.00;;;;;;4589711;19;20390;-30
2023/03/18 03:09:48;;;;;;;15.52;10.80;;;12.00;88.70;;;;;;4590259;19;21017;-31
2023/03/18 03:11:20;;;;;;;19.70;12.00;;;12.00;89.00;;;;;;4588759;19;20070;-30
2023/03/18 03:12:51;;;;;;;16.70;10.82;;;12.10;89.00;;;;;;4590050;19;20437;-31
2023/03/18 03:14:22;;;;;;;19.33;11.38;;;12.00;88.70;;;;;;4590589;19;20366;-29
2023/03/18 03:15:54;;;;;;;17.60;9.77;;;12.00;88.50;;;;;;4590447;19;20378;-30
2023/03/18 03:17:25;;;;;;;18.40;11.48;;;12.10;89.20;;;;;;4592283;19;20010;-30
2023/03/18 03:18:57;;;;;;;19.17;10.73;;;12.00;89.00;;;;;;4590854;19;20022;-28
2023/03/18 03:20:32;;;;;;;16.03;10.43;;;12.00;89.20;;;;;;4590321;19;20031;-29
2023/03/18 03:22:04;;;;;;;20.00;11.57;;;12.00;89.20;;;;;;4589442;19;20850;-31
2023/03/18 03:23:37;;;;;;;17.43;11.03;;;12.00;89.10;;;;;;4590105;19;20444;-33
2023/03/18 03:25:09;;;;;;;18.30;10.35;;;12.00;89.20;;;;;;4590632;19;21004;-33
2023/03/18 03:26:42;;;;;;;18.20;11.10;;;12.00;89.20;;;;;;4589230;19;20368;-32
2023/03/18 03:28:15;;;;;;;15.77;9.80;;;11.90;88.70;;;;;;4587769;19;20444;-31
2023/03/18 03:29:47;;;;;;;19.47;10.87;;;11.90;88.70;;;;;;4589740;19;20013;-29
2023/03/18 03:31:18;;;;;;;20.00;12.45;;;11.90;88.80;;;;;;4590612;19;20469;-32
2023/03/18 03:32:49;;;;;;;18.17;10.93;;;11.90;89.60;;;;;;4588319;19;20011;-32
2023/03/18 03:34:23;;;;;;;19.67;12.07;;;11.90;89.30;;;;;;4589867;19;20014;-32
2023/03/18 03:35:56;;;;;;;18.37;12.13;;;11.90;89.10;;;;;;4590004;19;20516;-32
2023/03/18 03:37:28;;;;;;;18.17;11.70;;;11.90;89.00;;;;;;4590341;19;20425;-30
2023/03/18 03:39:01;;;;;;;24.70;12.50;;;11.90;89.00;;;;;;4589983;19;20472;-30
2023/03/18 03:40:32;;;;;;;23.95;13.65;;;12.00;89.40;;;;;;4589942;19;20440;-33
2023/03/18 03:42:03;;;;;;;26.23;15.55;;;12.00;89.50;;;;;;4589933;19;20021;-29
2023/03/18 03:43:36;;;;;;;26.00;15.90;;;12.00;89.30;;;;;;4590066;19;20027;-31
2023/03/18 03:45:08;;;;;;;28.73;16.50;;;12.00;89.20;;;;;;4589817;19;20467;-32
2023/03/18 03:46:41;;;;;;;32.13;16.93;;;12.00;88.70;;;;;;4589819;19;20520;-30
2023/03/18 03:48:13;;;;;;;34.95;16.95;;;11.90;88.90;;;;;;4590210;19;20437;-31
2023/03/18 03:49:44;;;;;;;28.20;16.33;;;11.90;89.00;;;;;;4588844;19;20014;-30
2023/03/18 03:51:16;;;;;;;25.48;15.43;;;12.00;89.30;;;;;;4589805;19;20010;-28
2023/03/18 03:52:48;;;;;;;26.23;14.67;;;11.90;89.50;;;;;;4589331;19;20015;-30
2023/03/18 03:54:19;;;;;;;25.40;16.00;;;11.90;89.30;;;;;;4589871;19;20702;-30
2023/03/18 03:55:53;;;;;;;25.13;14.53;;;11.90;89.20;;;;;;4589631;19;20015;-31
2023/03/18 03:57:25;;;;;;;22.23;12.87;;;12.00;89.60;;;;;;4589869;19;20907;-32
2023/03/18 03:58:56;;;;;;;20.52;12.15;;;11.90;89.30;;;;;;4589866;19;20542;-32
2023/03/18 04:00:27;;;;;;;19.83;12.93;;;12.00;89.20;;;;;;4589381;19;20482;-33
2023/03/18 04:01:59;;;;;;;22.27;12.35;;;12.00;89.00;;;;;;4591123;19;20074;-30
2023/03/18 04:03:30;;;;;;;;;;;11.90;89.20;;;;;;4592383;19;20176;-29
2023/03/18 04:05:02;;;;;;;20.13;13.17;;;11.90;89.80;;;;;;4591079;19;19915;-30
2023/03/18 04:06:34;;;;;;;20.63;12.73;;;11.90;89.20;;;;;;4591860;19;20444;-31
2023/03/18 04:08:05;;;;;;;20.95;12.63;;;11.90;89.10;;;;;;4590310;19;20481;-30
2023/03/18 04:09:40;;;;;;;19.33;13.10;;;11.90;89.00;;;;;;4591466;19;20473;-29
2023/03/18 04:11:11;;;;;;;21.70;12.13;;;11.90;89.00;;;;;;4590073;19;20078;-31
2023/03/18 04:12:44;;;;;;;18.98;12.38;;;11.90;89.20;;;;;;4591313;19;21021;-30
2023/03/18 04:14:16;;;;;;;17.97;11.77;;;11.90;89.10;;;;;;4589412;19;20522;-30
2023/03/18 04:15:47;;;;;;;;;;;11.90;89.50;;;;;;4590853;19;21105;-31
2023/03/18 04:17:18;;;;;;;18.93;11.97;;;11.90;89.90;;;;;;4591450;19;20354;-31
2023/03/18 04:18:49;;;;;;;18.52;11.40;;;11.90;89.30;;;;;;4590138;19;20371;-30
2023/03/18 04:20:21;;;;;;;17.50;11.30;;;11.90;89.30;;;;;;4591932;19;20021;-30
2023/03/18 04:21:52;;;;;;;20.92;12.68;;;11.90;89.50;;;;;;4591239;19;20018;-36
2023/03/18 04:23:24;;;;;;;17.73;12.80;;;11.90;89.50;;;;;;4591472;19;20469;-30
2023/03/18 04:24:55;;;;;;;21.17;12.53;;;11.90;89.40;;;;;;4590103;19;20070;-31
2023/03/18 04:26:27;;;;;;;15.48;10.73;;;11.90;89.20;;;;;;4590045;19;20433;-29
2023/03/18 04:27:58;;;;;;;16.52;11.02;;;11.80;89.10;;;;;;4590931;19;20018;-29
2023/03/18 04:29:31;;;;;;;16.95;10.65;;;11.90;89.30;;;;;;4590203;19;20010;-29
2023/03/18 04:31:02;;;;;;;17.80;10.37;;;11.90;89.30;;;;;;4591619;19;20038;-29
2023/03/18 04:32:33;;;;;;;23.35;10.68;;;11.90;89.70;;;;;;4590480;19;20456;-28
2023/03/18 04:34:04;;;;;;;18.30;12.05;;;11.80;89.40;;;;;;4591264;19;20082;-31
2023/03/18 04:35:52;;;;;;;21.60;13.17;;;11.80;89.20;;;;;;4590831;19;20023;-29
2023/03/18 04:37:23;;;;;;;18.90;10.47;;;11.80;89.10;;;;;;4589542;19;20429;-29
2023/03/18 04:38:55;;;;;;;20.88;10.95;;;11.80;88.90;;;;;;4591895;19;20481;-31
2023/03/18 04:40:27;;;;;;;18.90;10.27;;;11.80;89.20;;;;;;4589439;19;20021;-30
2023/03/18 04:41:58;;;;;;;;;;;11.70;88.80;;;;;;4592098;19;20536;-29
2023/03/18 04:43:30;;;;;;;17.70;10.20;;;11.80;89.70;;;;;;4591155;19;19919;-30
2023/03/18 04:45:02;;;;;;;16.80;10.15;;;11.70;89.20;;;;;;4591011;19;20505;-31
2023/03/18 04:46:34;;;;;;;15.33;10.33;;;11.70;89.30;;;;;;4595578;19;20484;-30
2023/03/18 04:48:05;;;;;;;16.02;10.10;;;11.70;89.40;;;;;;4593089;19;20485;-29
2023/03/18 04:49:38;;;;;;;17.03;10.50;;;11.80;89.50;;;;;;4593802;19;20028;-29
2023/03/18 04:51:09;;;;;;;15.82;9.65;;;11.80;89.50;;;;;;4596178;19;20548;-29
2023/03/18 04:52:42;;;;;;;16.25;9.93;;;11.80;89.00;;;;;;4593494;19;20373;-30
2023/03/18 04:54:16;;;;;;;14.47;9.87;;;11.80;88.80;;;;;;4595240;19;20010;-29
2023/03/18 04:55:49;;;;;;;13.90;9.47;;;11.80;89.10;;;;;;4594681;19;20496;-32
2023/03/18 04:57:21;;;;;;;17.07;10.20;;;11.80;89.50;;;;;;4594024;19;20457;-30
2023/03/18 04:58:53;;;;;;;14.47;10.30;;;11.80;89.30;;;;;;4594712;19;20484;-29
2023/03/18 05:00:25;;;;;;;15.60;9.17;;;11.80;88.40;;;;;;4590943;19;20462;-30
2023/03/18 05:01:58;;;;;;;16.63;9.40;;;11.80;89.20;;;;;;4591269;19;20479;-30
2023/03/18 05:03:30;;;;;;;15.37;10.13;;;11.80;89.10;;;;;;4595105;19;20440;-29
2023/03/18 05:05:02;;;;;;;;;;;11.80;89.10;;;;;;4594539;19;20501;-30
2023/03/18 05:06:33;;;;;;;18.75;9.02;;;11.80;89.30;;;;;;4595828;19;19974;-30
2023/03/18 05:08:06;;;;;;;14.82;9.15;;;11.80;89.00;;;;;;4593867;19;20021;-30
2023/03/18 05:09:37;;;;;;;16.37;9.93;;;11.70;89.20;;;;;;4593661;19;20038;-32
2023/03/18 05:11:09;;;;;;;18.60;11.03;;;11.70;88.80;;;;;;4594475;19;20807;-30
2023/03/18 05:12:42;;;;;;;14.37;8.70;;;11.70;88.90;;;;;;4594164;19;20441;-29
2023/03/18 05:14:14;;;;;;;18.08;10.20;;;11.70;89.00;;;;;;4592919;19;20760;-29
2023/03/18 05:15:46;;;;;;;14.20;9.00;;;11.70;89.00;;;;;;4593340;19;20464;-30
2023/03/18 05:17:18;;;;;;;15.45;9.10;;;11.70;89.30;;;;;;4593014;19;20834;-31
2023/03/18 05:18:49;;;;;;;16.98;9.27;;;11.70;89.00;;;;;;4593135;19;20066;-33
2023/03/18 05:20:22;;;;;;;15.90;9.40;;;11.70;88.60;;;;;;4591979;19;20018;-30
2023/03/18 05:21:54;;;;;;;13.30;9.32;;;11.70;88.90;;;;;;4591328;19;20784;-30
2023/03/18 05:23:28;;;;;;;15.07;9.50;;;11.70;89.10;;;;;;4592496;19;20070;-29
2023/03/18 05:25:01;;;;;;;16.07;9.70;;;11.70;89.30;;;;;;4591862;19;20588;-29
2023/03/18 05:26:32;;;;;;;14.77;8.73;;;11.70;89.70;;;;;;4592400;19;20463;-29
2023/03/18 05:28:03;;;;;;;17.23;10.73;;;11.70;89.30;;;;;;4591888;19;20350;-32
2023/03/18 05:29:37;;;;;;;13.85;9.32;;;11.70;89.70;;;;;;4593518;19;20011;-30
2023/03/18 05:31:08;;;;;;;13.43;9.70;;;11.70;89.60;;;;;;4594537;19;20414;-29
2023/03/18 05:32:40;;;;;;;16.85;10.77;;;11.70;89.30;;;;;;4594356;19;20730;-30
2023/03/18 05:34:12;;;;;;;14.77;9.30;;;11.70;89.90;;;;;;4595034;19;20070;-30
2023/03/18 05:35:43;;;;;;;17.42;9.65;;;11.70;89.20;;;;;;4591237;19;20498;-25
2023/03/18 05:37:16;;;;;;;17.83;10.03;;;11.70;89.40;;;;;;4592206;19;20471;-28
2023/03/18 05:38:48;;;;;;;16.70;10.90;;;11.70;89.70;;;;;;4592902;19;20506;-25
2023/03/18 05:40:20;;;;;;;16.40;10.00;;;11.70;89.80;;;;;;4592975;19;20038;-34
2023/03/18 05:41:51;;;;;;;17.92;11.27;;;11.70;89.90;;;;;;4591429;19;20074;-30
2023/03/18 05:43:23;;;;;;;16.23;10.88;;;11.70;89.70;;;;;;4592292;19;20014;-34
2023/03/18 05:44:58;;;;;;;17.30;9.97;;;11.70;89.70;;;;;;4592511;19;20567;-33
2023/03/18 05:46:31;;;;;;;14.50;9.90;;;11.70;89.70;;;;;;4592652;19;21076;-30
2023/03/18 05:48:03;;;;;;;15.63;10.73;;;11.80;89.90;;;;;;4592392;19;20461;-29
2023/03/18 05:49:35;;;;;;;15.82;10.02;;;11.80;89.90;;;;;;4591881;19;20440;-29
2023/03/18 05:51:06;;;;;;;15.85;9.73;;;11.80;89.80;;;;;;4592617;19;20485;-30
2023/03/18 05:52:39;;;;;;;20.73;11.70;;;11.80;90.20;;;;;;4591139;19;20687;-31
2023/03/18 05:54:11;;;;;;;19.40;12.70;;;11.70;89.90;;;;;;4592020;19;20482;-31
2023/03/18 05:55:42;;;;;;;18.17;11.85;;;11.80;89.80;;;;;;4590599;19;20471;-32
2023/03/18 05:57:14;;;;;;;17.27;10.85;;;11.80;89.80;;;;;;4591271;19;20512;-34
2023/03/18 05:58:45;;;;;;;16.87;10.37;;;11.80;89.60;;;;;;4592063;19;20032;-29
2023/03/18 06:00:17;;;;;;;15.15;9.85;;;11.80;89.10;;;;;;4592071;19;20549;-27
2023/03/18 06:01:49;;;;;;;17.63;10.77;;;11.80;89.50;;;;;;4592323;19;20041;-29
2023/03/18 06:03:21;;;;;;;17.48;10.02;;;11.80;90.00;;;;;;4591986;19;20468;-30
2023/03/18 06:04:53;;;;;;;16.50;10.57;;;11.80;90.00;;;;;;4590645;19;20066;-29
2023/03/18 06:06:25;;;;;;;16.02;10.75;;;11.80;89.60;;;;;;4591782;19;20433;-33
2023/03/18 06:07:59;;;;;;;23.30;13.07;;;11.90;90.00;;;;;;4592436;19;20031;-30
2023/03/18 06:09:33;;;;;;;20.80;13.33;;;11.90;89.70;;;;;;4592226;19;20425;-30
2023/03/18 06:11:05;;;;;;;18.40;11.17;;;11.90;89.90;;;;;;4590691;19;20481;-31
2023/03/18 06:12:37;;;;;;;20.20;12.80;;;11.90;89.60;;;;;;4591593;19;20856;-30
2023/03/18 06:14:10;;;;;;;17.47;11.43;;;11.90;90.00;;;;;;4592063;19;20543;-30
2023/03/18 06:15:42;;;;;;;15.65;11.32;;;11.90;89.40;;;;;;4591025;19;20468;-30
2023/03/18 06:17:14;;;;;;;17.00;11.03;;;11.90;89.60;;;;;;4590907;19;20022;-32
2023/03/18 06:18:46;;;;;;;18.90;11.67;;;11.90;89.80;;;;;;4591226;19;20460;-30
2023/03/18 06:20:18;;;;;;;18.10;11.88;;;11.90;89.80;;;;;;4591006;19;20414;-30
2023/03/18 06:21:51;;;;;;;22.53;12.30;;;11.90;90.00;;;;;;4590604;19;20010;-29
2023/03/18 06:23:24;;;;;;;17.07;11.03;;;11.90;90.10;;;;;;4590784;19;20966;-29
2023/03/18 06:24:56;;;;;;;;;;;11.90;89.40;;;;;;4592224;19;20472;-31
2023/03/18 06:26:27;;;;;;;15.67;10.57;;;11.90;89.80;;;;;;4591759;19;20334;-30
2023/03/18 06:28:00;;;;;;;16.37;10.67;;;11.90;89.40;;;;;;4591523;19;20441;-30
2023/03/18 06:29:32;;;;;;;17.67;11.20;;;11.90;90.10;;;;;;4590379;19;20483;-29
2023/03/18 06:31:04;;;;;;;20.75;11.73;;;11.90;89.40;;;;;;4591074;19;20784;-29
2023/03/18 06:32:35;;;;;;;25.20;13.67;;;11.90;89.90;;;;;;4591659;19;20002;-30
2023/03/18 06:34:07;;;;;;;23.95;13.75;;;11.90;89.70;;;;;;4591541;19;20452;-31
2023/03/18 06:35:40;;;;;;;24.10;14.27;;;12.00;90.10;;;;;;4591398;19;20483;-32
2023/03/18 06:37:11;;;;;;;25.65;14.25;;;12.00;90.00;;;;;;4590597;19;21001;-29
2023/03/18 06:38:43;;;;;;;17.52;12.23;;;11.90;90.00;;;;;;4591163;19;20357;-29
2023/03/18 06:40:15;;;;;;;22.53;13.73;;;12.00;90.10;;;;;;4591344;19;20021;-29
2023/03/18 06:41:46;;;;;;;19.55;13.00;;;12.00;90.10;;;;;;4590117;19;20524;-31
2023/03/18 06:43:18;;;;;;;19.77;13.23;;;12.00;90.00;;;;;;4590129;19;20018;-30
2023/03/18 06:44:50;;;;;;;21.45;13.57;;;12.00;89.80;;;;;;4589742;19;20487;-36
2023/03/18 06:46:22;;;;;;;23.33;14.30;;;12.00;90.10;;;;;;4591101;19;20042;-33
2023/03/18 06:47:54;;;;;;;26.47;14.27;;;11.90;89.50;;;;;;4590493;19;20023;-30
2023/03/18 06:49:25;;;;;;;26.23;15.15;;;11.90;89.60;;;;;;4590963;19;20444;-28
2023/03/18 06:50:56;;;;;;;26.50;14.95;;;11.90;89.80;;;;;;4589600;19;20018;-29
2023/03/18 06:52:28;;;;;;;23.48;14.68;;;11.80;90.10;;;;;;4591229;19;20078;-31
2023/03/18 06:53:59;;;;;;;22.40;14.32;;;11.80;89.80;;;;;;4590662;19;20015;-30
2023/03/18 06:55:31;;;;;;;22.38;13.40;;;11.80;90.10;;;;;;4590350;19;20023;-30
2023/03/18 06:57:02;;;;;;;23.85;14.82;;;11.80;90.20;;;;;;4591904;19;20043;-28
2023/03/18 06:58:34;;;;;;;23.67;14.83;;;11.80;90.40;;;;;;4591033;19;20018;-33
2023/03/18 07:00:07;;;;;;;25.00;14.55;;;11.80;89.60;;;;;;4591674;19;20453;-31
2023/03/18 07:01:40;;;;;;;25.73;15.13;;;11.80;89.70;;;;;;4590753;19;20014;-33
2023/03/18 07:03:12;;;;;;;22.83;14.30;;;11.90;90.10;;;;;;4589690;19;20467;-30
2023/03/18 07:04:43;;;;;;;;;;;11.90;90.00;;;;;;4591877;19;20461;-33
2023/03/18 07:06:15;;;;;;;24.08;14.55;;;11.90;90.10;;;;;;4590979;19;20368;-29
2023/03/18 07:07:47;;;;;;;19.63;12.97;;;11.90;90.00;;;;;;4591902;19;20022;-33
2023/03/18 07:09:19;;;;;;;20.63;12.73;;;11.90;90.10;;;;;;4590864;19;20860;-27
2023/03/18 07:10:53;;;;;;;20.95;13.32;;;12.00;90.00;;;;;;4590601;19;20524;-30
2023/03/18 07:12:27;;;;;;;20.20;13.47;;;12.10;90.20;;;;;;4590510;19;20017;-31
2023/03/18 07:13:58;;;;;;;19.73;13.57;;;12.10;90.20;;;;;;4589055;19;20465;-27
2023/03/18 07:15:30;;;;;;;20.45;12.88;;;12.10;90.20;;;;;;4590982;19;20480;-32
2023/03/18 07:17:02;;;;;;;24.98;15.15;;;12.10;90.00;;;;;;4590621;19;20018;-31
2023/03/18 07:18:33;;;;;;;23.50;15.37;;;12.10;89.70;;;;;;4591133;19;20006;-31
2023/03/18 07:20:06;;;;;;;21.33;13.23;;;12.20;89.60;;;;;;4590297;19;20531;-28
2023/03/18 07:21:38;;;;;;;22.60;15.13;;;12.30;89.40;;;;;;4590676;19;20014;-26
2023/03/18 07:23:10;;;;;;;25.80;15.53;;;12.30;89.50;;;;;;4587536;19;20464;-28
2023/03/18 07:24:42;;;;;;;22.57;14.30;;;12.30;89.90;;;;;;4589516;19;20464;-28
2023/03/18 07:26:14;;;;;;;19.97;14.40;;;12.30;89.90;;;;;;4589359;19;20768;-30
2023/03/18 07:27:45;;;;;;;22.48;14.75;;;12.40;89.70;;;;;;4589276;19;20818;-33
2023/03/18 07:29:17;;;;;;;23.03;15.03;;;12.40;89.40;;;;;;4590689;19;20015;-31
2023/03/18 07:30:50;;;;;;;22.92;15.48;;;12.40;89.00;;;;;;4589225;19;20449;-28
2023/03/18 07:32:22;;;;;;;25.80;16.67;;;12.50;90.00;;;;;;4589345;19;20022;-31
2023/03/18 07:33:53;;;;;;;25.20;15.97;;;12.50;89.20;;;;;;4588337;19;20469;-30
2023/03/18 07:35:25;;;;;;;24.13;15.15;;;12.60;89.50;;;;;;4590039;19;20457;-31
2023/03/18 07:36:57;;;;;;;24.27;15.35;;;12.70;89.60;;;;;;4590606;19;20022;-30
2023/03/18 07:38:29;;;;;;;26.53;16.07;;;12.80;89.70;;;;;;4589942;19;20026;-35
2023/03/18 07:40:01;;;;;;;24.60;15.65;;;12.90;88.80;;;;;;4590467;19;20499;-33
2023/03/18 07:41:33;;;;;;;29.57;18.93;;;12.90;88.90;;;;;;4590114;19;20092;-32
2023/03/18 07:43:05;;;;;;;26.43;18.20;;;13.00;88.70;;;;;;4589805;19;20519;-30
2023/03/18 07:44:42;;;;;;;22.93;14.73;;;13.00;88.30;;;;;;4586044;19;20492;-34
2023/03/18 07:46:14;;;;;;;24.47;16.10;;;13.00;88.40;;;;;;4589382;19;20465;-33
2023/03/18 07:47:46;;;;;;;22.27;15.40;;;13.00;87.90;;;;;;4590283;19;20449;-30
2023/03/18 07:49:18;;;;;;;26.48;16.40;;;12.90;89.00;;;;;;4589235;19;20468;-33
2023/03/18 07:50:50;;;;;;;21.37;14.17;;;12.80;87.80;;;;;;4589585;19;20023;-37
2023/03/18 07:52:22;;;;;;;24.27;16.60;;;12.80;87.80;;;;;;4589546;19;20556;-36
2023/03/18 07:53:54;;;;;;;;;;;12.70;88.80;;;;;;4588838;19;20010;-32